Time;durP1;ratioP1;P1;durP2;ratioP2;P2;SDS_P1;SDS_P2;PMS_P1;PMS_P2;Temp;Humidity;BMP_temperature;BMP_pressure;BME280_temperature;BME280_humidity;BME280_pressure;Samples;Min_cycle;Max_cycle;Signal;HPM_P1;HPM_P2
2022/06/20 00:01:45;;;;;;;18.47;9.70;;;26.50;71.80;;;;;;5116521;28;20546;-57
2022/06/20 00:04:15;;;;;;;10.83;7.90;;;26.50;74.00;;;;;;5116098;28;20825;-57
2022/06/20 00:06:42;;;;;;;12.13;9.70;;;26.50;74.70;;;;;;5116636;28;20486;-58
2022/06/20 00:09:11;;;;;;;13.00;8.33;;;26.40;74.70;;;;;;5116282;28;20494;-58
2022/06/20 00:11:42;;;;;;;15.27;9.63;;;26.30;74.40;;;;;;5116274;28;20549;-57
2022/06/20 00:14:13;;;;;;;12.53;8.57;;;26.30;75.00;;;;;;5116278;28;20437;-57
2022/06/20 00:16:40;;;;;;;14.53;8.53;;;26.30;74.90;;;;;;5115931;28;20480;-57
2022/06/20 00:19:09;;;;;;;13.80;9.33;;;26.20;76.10;;;;;;5115977;28;20486;-57
2022/06/20 00:21:38;;;;;;;10.30;9.17;;;26.20;76.30;;;;;;5115769;28;20952;-57
2022/06/20 00:24:06;;;;;;;13.33;8.50;;;26.20;74.10;;;;;;5116096;28;20474;-57
2022/06/20 00:26:33;;;;;;;10.20;8.57;;;26.20;76.80;;;;;;5115944;28;20457;-57
2022/06/20 00:29:03;;;;;;;13.63;9.40;;;26.00;74.30;;;;;;5115539;28;20549;-57
2022/06/20 00:31:31;;;;;;;19.10;9.30;;;26.10;78.60;;;;;;5115683;28;20438;-57
2022/06/20 00:33:58;;;;;;;17.60;9.30;;;26.10;76.60;;;;;;5115865;28;20446;-57
2022/06/20 00:36:25;;;;;;;13.33;9.20;;;26.00;79.00;;;;;;5115428;28;20453;-57
2022/06/20 00:38:55;;;;;;;14.33;9.23;;;26.00;79.80;;;;;;5115621;28;20478;-57
2022/06/20 00:41:26;;;;;;;11.07;9.10;;;26.00;79.60;;;;;;5115685;28;20913;-57
2022/06/20 00:43:54;;;;;;;10.03;8.20;;;25.80;80.40;;;;;;5115314;28;20787;-57
2022/06/20 00:46:32;;;;;;;10.47;9.30;;;25.90;80.00;;;;;;5115118;28;20569;-57
2022/06/20 00:49:06;;;;;;;10.50;9.40;;;26.00;80.20;;;;;;5115540;28;20458;-57
2022/06/20 00:51:37;;;;;;;12.07;9.00;;;26.00;78.80;;;;;;5115775;28;20403;-57
2022/06/20 00:54:12;;;;;;;12.97;8.90;;;25.80;81.50;;;;;;5115237;28;20886;-58
2022/06/20 00:56:50;;;;;;;15.53;8.70;;;26.00;80.40;;;;;;5115405;28;20502;-58
2022/06/20 00:59:24;;;;;;;9.30;8.00;;;26.10;78.10;;;;;;5114946;28;20482;-58
2022/06/20 01:01:53;;;;;;;10.70;8.17;;;26.10;79.30;;;;;;5115302;28;20437;-58
2022/06/20 01:04:26;;;;;;;11.87;8.83;;;26.20;77.40;;;;;;5114936;28;20520;-58
2022/06/20 01:06:55;;;;;;;10.07;8.80;;;26.00;82.40;;;;;;5115759;28;20523;-58
2022/06/20 01:09:26;;;;;;;12.07;8.90;;;25.90;84.60;;;;;;5114762;28;21018;-57
2022/06/20 01:11:55;;;;;;;15.20;9.37;;;25.70;91.00;;;;;;5115255;28;20460;-57
2022/06/20 01:14:26;;;;;;;19.57;13.80;;;25.50;93.80;;;;;;5114610;28;20442;-57
2022/06/20 01:16:58;;;;;;;16.83;11.60;;;25.40;99.60;;;;;;5114789;28;20453;-57
2022/06/20 01:19:54;;;;;;;15.23;12.27;;;25.30;98.20;;;;;;5114945;28;20490;-57
2022/06/20 01:22:44;;;;;;;17.47;12.77;;;25.10;99.90;;;;;;5115028;28;20631;-59
2022/06/20 01:25:28;;;;;;;13.50;10.37;;;25.00;99.90;;;;;;5114692;28;20435;-57
2022/06/20 01:27:57;;;;;;;22.63;13.10;;;24.90;99.90;;;;;;5114902;28;20452;-57
2022/06/20 01:30:30;;;;;;;16.03;11.17;;;24.70;99.90;;;;;;5114425;28;20550;-57
2022/06/20 01:32:59;;;;;;;21.97;11.87;;;24.40;99.90;;;;;;5114821;28;20427;-57
2022/06/20 01:38:15;;;;;;;13.80;10.50;;;24.40;99.90;;;;;;5114779;28;20610;-57
2022/06/20 01:43:29;;;;;;;15.70;11.73;;;24.40;99.90;;;;;;5114281;28;20403;-57
2022/06/20 01:46:00;;;;;;;23.10;12.03;;;24.30;99.90;;;;;;5114200;28;20501;-57
2022/06/20 01:48:34;;;;;;;15.47;12.33;;;24.30;99.90;;;;;;5114336;28;20437;-57
2022/06/20 01:51:04;;;;;;;17.67;11.87;;;24.20;99.90;;;;;;5114604;28;20422;-57
2022/06/20 01:53:34;;;;;;;16.80;13.57;;;24.20;99.90;;;;;;5114233;28;20427;-57
2022/06/20 01:56:04;;;;;;;20.57;14.23;;;24.10;99.90;;;;;;5114895;28;20445;-57
2022/06/20 01:58:38;;;;;;;16.70;12.47;;;24.10;99.90;;;;;;5114069;28;20478;-57
2022/06/20 02:01:07;;;;;;;16.00;11.10;;;24.00;99.90;;;;;;5114369;28;20502;-57
2022/06/20 02:03:37;;;;;;;12.90;10.50;;;24.00;99.90;;;;;;5114017;28;20495;-57
2022/06/20 02:06:05;;;;;;;13.70;12.30;;;24.20;99.90;;;;;;5114028;28;20541;-57
2022/06/20 02:08:33;;;;;;;16.57;11.93;;;24.30;99.90;;;;;;5113911;28;20450;-57
2022/06/20 02:11:05;;;;;;;26.03;13.80;;;24.40;99.90;;;;;;5114258;28;20836;-57
2022/06/20 02:13:42;;;;;;;15.07;12.73;;;24.20;99.90;;;;;;5113905;28;20430;-57
2022/06/20 02:16:13;;;;;;;14.17;12.07;;;23.90;99.90;;;;;;5114260;28;20426;-56
2022/06/20 02:18:42;;;;;;;14.57;11.10;;;23.90;99.90;;;;;;5113771;28;20514;-57
2022/06/20 02:21:14;;;;;;;19.70;11.13;;;23.90;99.90;;;;;;5113756;28;20591;-57
2022/06/20 02:23:46;;;;;;;18.57;13.17;;;24.10;99.90;;;;;;5114689;28;20513;-57
2022/06/20 02:26:15;;;;;;;13.63;12.00;;;24.10;99.90;;;;;;5114446;28;20469;-57
2022/06/20 02:28:50;;;;;;;19.40;12.30;;;24.00;99.90;;;;;;5118265;28;20445;-57
2022/06/20 02:31:18;;;;;;;16.60;11.80;;;24.00;99.90;;;;;;5118851;28;20458;-57
2022/06/20 02:33:47;;;;;;;14.37;12.77;;;23.80;99.90;;;;;;5118203;28;20521;-57
2022/06/20 02:36:14;;;;;;;19.93;11.80;;;23.80;99.90;;;;;;5118100;28;20450;-57
2022/06/20 02:38:43;;;;;;;18.67;12.00;;;23.80;99.90;;;;;;5117716;28;20805;-57
2022/06/20 02:41:12;;;;;;;15.53;11.20;;;23.80;99.90;;;;;;5117908;28;20482;-57
2022/06/20 02:43:43;;;;;;;12.60;10.27;;;24.00;99.90;;;;;;5118096;28;20533;-57
2022/06/20 02:46:15;;;;;;;14.80;10.70;;;24.00;99.90;;;;;;5117584;28;20458;-57
2022/06/20 02:48:46;;;;;;;14.53;11.70;;;24.10;99.90;;;;;;5117622;28;20921;-57
2022/06/20 02:51:20;;;;;;;14.30;11.73;;;24.20;99.90;;;;;;5117577;28;20803;-56
2022/06/20 02:53:50;;;;;;;16.53;13.03;;;24.00;99.90;;;;;;5117915;28;20430;-57
2022/06/20 02:56:21;;;;;;;14.87;12.17;;;24.00;99.90;;;;;;5117511;28;20951;-57
2022/06/20 02:58:52;;;;;;;24.87;12.40;;;24.10;99.90;;;;;;5117798;28;20426;-58
2022/06/20 03:01:29;;;;;;;15.43;10.40;;;24.30;99.90;;;;;;5117417;28;20462;-57
2022/06/20 03:03:58;;;;;;;14.20;12.33;;;24.30;99.90;;;;;;5117372;28;20517;-57
2022/06/20 03:06:30;;;;;;;11.93;10.63;;;24.20;99.90;;;;;;5117652;28;20495;-57
2022/06/20 03:08:58;;;;;;;12.17;11.07;;;24.10;99.90;;;;;;5117588;28;20545;-57
2022/06/20 03:11:28;;;;;;;11.80;10.60;;;24.20;99.90;;;;;;5117536;28;20452;-57
2022/06/20 03:13:58;;;;;;;18.70;13.87;;;24.10;99.90;;;;;;5117485;28;20506;-57
2022/06/20 03:16:34;;;;;;;14.63;11.13;;;24.20;99.90;;;;;;5117133;28;20445;-57
2022/06/20 03:19:03;;;;;;;21.83;12.70;;;24.10;99.90;;;;;;5117103;28;21019;-57
2022/06/20 03:21:36;;;;;;;16.73;12.60;;;24.10;99.90;;;;;;5116956;28;21014;-57
2022/06/20 03:24:04;;;;;;;15.33;12.43;;;24.00;99.90;;;;;;5117903;28;20613;-57
2022/06/20 03:26:32;;;;;;;16.37;12.93;;;23.80;99.90;;;;;;5117264;28;20529;-57
2022/06/20 03:29:02;;;;;;;12.23;11.13;;;23.80;99.90;;;;;;5116788;28;20508;-57
2022/06/20 03:31:36;;;;;;;20.20;12.10;;;23.90;99.90;;;;;;5116813;28;20461;-57
2022/06/20 03:34:07;;;;;;;15.33;11.77;;;24.00;99.90;;;;;;5116857;28;20886;-57
2022/06/20 03:36:35;;;;;;;14.67;11.30;;;23.80;99.90;;;;;;5116796;27;20925;-57
2022/06/20 03:39:06;;;;;;;12.97;9.50;;;24.00;99.90;;;;;;5116586;28;21024;-57
2022/06/20 03:41:35;;;;;;;17.97;10.07;;;23.90;99.90;;;;;;5116927;28;20474;-57
2022/06/20 03:44:05;;;;;;;16.50;9.30;;;23.80;99.90;;;;;;5116929;28;20438;-58
2022/06/20 03:46:40;;;;;;;12.30;10.47;;;23.60;99.90;;;;;;5116449;28;20918;-57
2022/06/20 03:49:15;;;;;;;15.93;10.60;;;23.60;99.90;;;;;;5116752;28;20458;-57
2022/06/20 03:51:46;;;;;;;17.60;10.90;;;23.40;99.90;;;;;;5116816;28;20422;-57
2022/06/20 03:54:20;;;;;;;21.40;12.07;;;23.50;99.90;;;;;;5116788;28;20518;-57
2022/06/20 03:56:53;;;;;;;12.80;9.40;;;23.20;99.90;;;;;;5116725;28;20510;-57
2022/06/20 03:59:25;;;;;;;17.87;11.17;;;23.10;99.90;;;;;;5116576;28;20465;-57
2022/06/20 04:02:02;;;;;;;17.63;11.63;;;22.90;99.90;;;;;;5116370;28;20457;-57
2022/06/20 04:04:36;;;;;;;13.90;10.40;;;22.70;99.90;;;;;;5116607;28;20480;-57
2022/06/20 04:07:07;;;;;;;14.20;10.23;;;22.40;99.90;;;;;;5116473;28;20419;-57
2022/06/20 04:12:28;;;;;;;17.87;11.37;;;22.00;99.90;;;;;;5116171;28;20422;-57
2022/06/20 04:14:59;;;;;;;15.40;10.80;;;21.80;99.90;;;;;;5116060;28;20972;-57
2022/06/20 04:20:23;;;;;;;17.93;11.27;;;22.00;99.90;;;;;;5115919;28;20477;-57
2022/06/20 04:22:54;;;;;;;22.10;14.33;;;22.00;99.90;;;;;;5115955;28;20791;-57
2022/06/20 04:25:31;;;;;;;20.70;12.17;;;21.70;99.90;;;;;;5115845;28;20901;-57
2022/06/20 04:28:05;;;;;;;13.53;10.27;;;21.60;99.90;;;;;;5116144;28;20514;-57
2022/06/20 04:30:38;;;;;;;13.70;12.07;;;21.60;99.90;;;;;;5115782;28;20466;-57
2022/06/20 04:33:13;;;;;;;14.43;11.17;;;21.70;99.90;;;;;;5115758;28;20408;-57
2022/06/20 04:35:46;;;;;;;17.30;10.87;;;21.50;99.90;;;;;;5116498;28;20434;-57
2022/06/20 04:38:19;;;;;;;18.00;10.70;;;21.70;99.90;;;;;;5115927;28;20473;-57
2022/06/20 04:40:56;;;;;;;13.90;10.77;;;21.50;99.90;;;;;;5115714;28;20557;-57
2022/06/20 04:43:30;;;;;;;12.37;9.07;;;21.70;99.90;;;;;;5115758;28;20437;-57
2022/06/20 04:46:02;;;;;;;12.77;9.53;;;21.50;99.90;;;;;;5115385;28;20565;-57
2022/06/20 04:48:31;;;;;;;11.20;10.07;;;21.70;99.90;;;;;;5115295;28;20437;-57
2022/06/20 04:51:02;;;;;;;9.10;8.17;;;22.10;99.90;;;;;;5114830;28;20985;-57
2022/06/20 04:53:33;;;;;;;12.27;9.97;;;22.30;99.90;;;;;;5115225;28;20901;-57
2022/06/20 04:56:04;;;;;;;14.53;9.83;;;22.40;99.90;;;;;;5116020;28;20434;-57
2022/06/20 04:58:35;;;;;;;13.00;9.97;;;21.80;99.90;;;;;;5115212;28;20404;-57
2022/06/20 05:01:03;;;;;;;17.50;9.20;;;21.70;99.90;;;;;;5115085;28;20812;-57
2022/06/20 05:03:37;;;;;;;17.60;9.67;;;21.90;99.90;;;;;;5115644;28;20432;-58
2022/06/20 05:06:07;;;;;;;22.87;9.17;;;22.10;99.90;;;;;;5115909;28;20426;-58
2022/06/20 05:08:38;;;;;;;16.33;10.73;;;22.50;99.90;;;;;;5115075;28;20522;-57
2022/06/20 05:11:09;;;;;;;14.53;9.07;;;22.60;99.90;;;;;;5115285;28;20447;-58
2022/06/20 05:13:41;;;;;;;14.63;9.07;;;22.50;99.90;;;;;;5114822;28;20893;-57
2022/06/20 05:16:17;;;;;;;18.93;11.27;;;22.30;99.90;;;;;;5114667;28;20514;-57
2022/06/20 05:18:49;;;;;;;16.00;11.80;;;22.10;99.90;;;;;;5115024;28;20786;-57
2022/06/20 05:21:21;;;;;;;14.93;10.00;;;22.20;99.90;;;;;;5114600;27;20474;-57
2022/06/20 05:23:51;;;;;;;10.93;9.17;;;22.10;99.90;;;;;;5114892;28;20430;-57
2022/06/20 05:26:22;;;;;;;12.47;9.80;;;22.00;99.90;;;;;;5115470;28;20812;-58
2022/06/20 05:28:53;;;;;;;15.40;10.20;;;21.80;99.90;;;;;;5114542;28;20518;-57
2022/06/20 05:31:25;;;;;;;13.07;8.80;;;21.90;99.90;;;;;;5114703;28;20424;-58
2022/06/20 05:34:00;;;;;;;10.37;8.50;;;21.80;99.90;;;;;;5115206;28;20435;-58
2022/06/20 05:36:30;;;;;;;8.23;6.93;;;21.80;99.90;;;;;;5114680;28;20517;-58
2022/06/20 05:39:02;;;;;;;10.00;8.60;;;21.70;99.90;;;;;;5114449;28;20806;-58
2022/06/20 05:41:29;;;;;;;10.13;8.77;;;21.70;99.90;;;;;;5114128;28;20490;-58
2022/06/20 05:43:59;;;;;;;14.07;10.40;;;21.70;99.90;;;;;;5114189;28;20541;-58
2022/06/20 05:46:32;;;;;;;14.70;9.20;;;21.90;99.90;;;;;;5114381;28;20475;-57
2022/06/20 05:49:06;;;;;;;13.07;9.50;;;22.00;99.90;;;;;;5114346;28;20542;-58
2022/06/20 05:51:38;;;;;;;13.27;10.30;;;22.00;99.90;;;;;;5114016;28;20510;-57
2022/06/20 05:54:12;;;;;;;11.53;8.23;;;22.10;99.90;;;;;;5113897;28;20469;-58
2022/06/20 05:56:43;;;;;;;12.63;8.67;;;22.10;99.90;;;;;;5114165;28;20463;-58
2022/06/20 05:59:24;;;;;;;14.27;9.60;;;22.00;99.90;;;;;;5112905;28;20957;-57
2022/06/20 06:01:53;;;;;;;16.97;9.77;;;22.00;99.90;;;;;;5113312;28;20824;-58
2022/06/20 06:04:28;;;;;;;17.07;10.53;;;21.90;99.90;;;;;;5114149;28;20461;-58
2022/06/20 06:07:00;;;;;;;12.43;8.90;;;22.10;99.90;;;;;;5114317;28;20422;-57
2022/06/20 06:09:35;;;;;;;14.17;10.23;;;22.00;99.90;;;;;;5114098;28;20560;-57
2022/06/20 06:12:05;;;;;;;10.53;8.47;;;22.20;99.90;;;;;;5114241;28;20449;-58
2022/06/20 06:14:39;;;;;;;13.60;7.73;;;22.00;99.90;;;;;;5113742;28;20443;-58
2022/06/20 06:17:12;;;;;;;10.53;9.33;;;22.20;99.90;;;;;;5113785;28;20920;-57
2022/06/20 06:19:48;;;;;;;13.13;8.80;;;22.40;99.90;;;;;;5113717;28;20499;-58
2022/06/20 06:22:19;;;;;;;20.33;9.80;;;22.50;99.90;;;;;;5113703;28;20960;-58
2022/06/20 06:24:50;;;;;;;12.60;8.23;;;22.40;99.90;;;;;;5113886;28;20426;-58
2022/06/20 06:27:21;;;;;;;15.47;10.10;;;22.30;99.90;;;;;;5114303;28;20427;-58
2022/06/20 06:29:52;;;;;;;31.03;10.20;;;22.30;99.90;;;;;;5113601;28;20470;-58
2022/06/20 06:32:34;;;;;;;11.53;10.27;;;22.20;99.90;;;;;;5113692;28;20423;-58
2022/06/20 06:35:21;;;;;;;13.33;10.17;;;22.30;99.90;;;;;;5113907;28;20431;-58
2022/06/20 06:37:56;;;;;;;14.10;10.87;;;22.40;99.90;;;;;;5113494;28;20439;-56
2022/06/20 06:40:31;;;;;;;11.70;8.60;;;22.60;99.90;;;;;;5113460;28;20610;-57
2022/06/20 06:42:59;;;;;;;10.70;9.33;;;22.70;99.90;;;;;;5113566;28;20836;-57
2022/06/20 06:45:30;;;;;;;14.50;10.30;;;22.80;99.90;;;;;;5112854;28;20505;-57
2022/06/20 06:48:03;;;;;;;14.93;9.13;;;22.80;99.90;;;;;;5114155;28;20514;-57
2022/06/20 06:50:38;;;;;;;13.50;9.13;;;22.90;99.90;;;;;;5113674;28;20460;-57
2022/06/20 06:53:12;;;;;;;11.87;8.77;;;23.10;99.90;;;;;;5113270;28;20918;-57
2022/06/20 06:55:42;;;;;;;15.53;9.17;;;23.10;99.90;;;;;;5113391;28;20442;-56
2022/06/20 06:58:17;;;;;;;10.80;8.00;;;23.00;99.90;;;;;;5112968;28;20431;-57
2022/06/20 07:00:47;;;;;;;13.87;9.20;;;22.80;99.90;;;;;;5113239;28;20521;-57
2022/06/20 07:03:18;;;;;;;12.17;9.63;;;22.80;99.90;;;;;;5112448;28;20450;-57
2022/06/20 07:05:53;;;;;;;11.97;9.13;;;22.90;99.90;;;;;;5113168;28;20513;-56
2022/06/20 07:08:23;;;;;;;8.97;7.80;;;23.30;99.90;;;;;;5113118;28;20434;-56
2022/06/20 07:10:55;;;;;;;10.80;8.83;;;24.20;99.90;;;;;;5112920;28;20470;-56
2022/06/20 07:13:31;;;;;;;11.47;7.67;;;24.90;99.90;;;;;;5115733;28;20434;-56
2022/06/20 07:16:02;;;;;;;11.83;8.00;;;25.60;99.90;;;;;;5117244;28;20522;-57
2022/06/20 07:18:42;;;;;;;12.20;8.70;;;26.20;99.90;;;;;;5117047;28;20427;-57
2022/06/20 07:21:13;;;;;;;11.70;7.13;;;26.50;99.90;;;;;;5116675;28;20858;-57
2022/06/20 07:23:43;;;;;;;7.60;6.30;;;26.90;99.90;;;;;;5117025;28;20427;-58
2022/06/20 07:26:12;;;;;;;11.60;7.70;;;27.40;99.90;;;;;;5116631;28;20447;-58
2022/06/20 07:28:44;;;;;;;19.47;7.47;;;27.50;99.90;;;;;;5116523;28;20447;-58
2022/06/20 07:31:18;;;;;;;11.70;6.87;;;27.60;99.90;;;;;;5116465;28;20973;-57
2022/06/20 07:33:50;;;;;;;11.23;7.73;;;27.60;99.90;;;;;;5116616;28;20515;-57
2022/06/20 07:36:23;;;;;;;11.17;6.93;;;27.80;99.90;;;;;;5116530;28;20824;-58
2022/06/20 07:38:55;;;;;;;11.37;8.43;;;27.30;99.90;;;;;;5116342;28;20523;-58
2022/06/20 07:41:27;;;;;;;10.07;7.10;;;27.50;99.90;;;;;;5116145;28;20485;-57
2022/06/20 07:44:01;;;;;;;13.30;7.93;;;27.40;99.90;;;;;;5116303;28;20457;-58
2022/06/20 07:46:35;;;;;;;9.93;6.80;;;27.80;99.90;;;;;;5115956;28;20573;-58
2022/06/20 07:49:06;;;;;;;10.53;6.60;;;28.30;99.90;;;;;;5116332;28;20466;-58
2022/06/20 07:51:38;;;;;;;6.90;6.10;;;28.20;99.90;;;;;;5116214;28;20873;-57
2022/06/20 07:54:11;;;;;;;7.00;6.40;;;28.40;99.90;;;;;;5116126;28;20427;-57
2022/06/20 07:56:45;;;;;;;9.37;7.70;;;28.50;99.90;;;;;;5116458;27;20768;-58
2022/06/20 07:59:18;;;;;;;10.40;6.90;;;29.50;99.90;;;;;;5115784;28;20459;-58
2022/06/20 08:01:52;;;;;;;9.70;6.90;;;30.10;99.90;;;;;;5115910;28;20907;-59
2022/06/20 08:04:27;;;;;;;9.60;6.40;;;30.10;99.90;;;;;;5115986;28;20518;-59
2022/06/20 08:07:00;;;;;;;14.87;7.50;;;29.80;99.90;;;;;;5116207;28;20423;-58
2022/06/20 08:09:32;;;;;;;9.27;7.47;;;30.40;99.90;;;;;;5116904;28;20553;-56
2022/06/20 08:12:03;;;;;;;7.10;6.47;;;30.60;99.90;;;;;;5116125;28;20541;-58
2022/06/20 08:14:38;;;;;;;9.37;5.53;;;30.30;99.90;;;;;;5116127;28;20431;-58
2022/06/20 08:17:08;;;;;;;9.03;6.20;;;30.30;99.90;;;;;;5115804;28;20838;-57
2022/06/20 08:19:37;;;;;;;7.87;5.90;;;30.50;99.90;;;;;;5115942;28;20470;-57
2022/06/20 08:22:10;;;;;;;10.30;6.53;;;30.70;99.50;;;;;;5115529;27;20473;-57
2022/06/20 08:24:47;;;;;;;7.20;6.00;;;30.70;99.50;;;;;;5114680;28;20466;-57
2022/06/20 08:27:22;;;;;;;6.80;5.37;;;30.80;98.40;;;;;;5115709;28;20931;-57
2022/06/20 08:29:56;;;;;;;9.57;6.10;;;30.80;98.20;;;;;;5115386;28;20473;-57
2022/06/20 08:32:32;;;;;;;11.53;6.20;;;31.00;97.20;;;;;;5115561;28;20422;-57
2022/06/20 08:35:10;;;;;;;12.70;6.50;;;31.00;97.60;;;;;;5115655;28;20506;-58
2022/06/20 08:37:44;;;;;;;7.87;5.70;;;31.20;96.40;;;;;;5115347;28;20521;-58
2022/06/20 08:40:31;;;;;;;8.90;6.33;;;30.90;95.10;;;;;;5114778;28;20462;-58
2022/06/20 08:43:24;;;;;;;8.27;6.70;;;30.80;96.40;;;;;;5115005;28;20545;-58
2022/06/20 08:46:14;;;;;;;6.87;6.17;;;31.00;96.70;;;;;;5114729;28;20940;-58
2022/06/20 08:49:28;;;;;;;9.63;6.87;;;31.30;95.40;;;;;;5114978;28;20523;-58
2022/06/20 08:52:32;;;;;;;9.83;6.83;;;31.50;95.10;;;;;;5078433;28;20462;-58
2022/06/20 08:55:23;;;;;;;9.00;6.80;;;31.20;95.70;;;;;;5114836;28;20876;-58
2022/06/20 08:57:59;;;;;;;6.40;5.63;;;31.20;93.90;;;;;;5114886;28;20423;-58
2022/06/20 09:00:33;;;;;;;8.97;6.57;;;32.30;93.00;;;;;;5114961;28;20458;-58
2022/06/20 09:03:24;;;;;;;14.60;8.30;;;31.50;92.80;;;;;;5114502;28;20463;-58
2022/06/20 09:06:07;;;;;;;14.43;6.97;;;30.70;93.40;;;;;;5114948;28;20462;-58
2022/06/20 09:08:56;;;;;;;6.73;6.00;;;30.80;93.60;;;;;;5114699;28;20423;-58
2022/06/20 09:11:41;;;;;;;11.43;6.43;;;31.60;94.00;;;;;;5114700;28;20878;-58
2022/06/20 09:14:31;;;;;;;9.07;6.97;;;31.90;92.60;;;;;;5114547;28;20419;-58
2022/06/20 09:17:11;;;;;;;9.10;5.90;;;31.70;92.00;;;;;;5114474;28;20786;-60
2022/06/20 09:19:54;;;;;;;11.10;6.90;;;31.70;92.60;;;;;;5114648;28;20515;-58
2022/06/20 09:22:36;;;;;;;6.87;5.47;;;32.80;91.90;;;;;;5114323;28;20458;-58
2022/06/20 09:25:12;;;;;;;13.07;7.40;;;33.30;91.30;;;;;;5114131;28;20784;-58
2022/06/20 09:27:50;;;;;;;8.13;6.07;;;32.70;91.60;;;;;;5114692;28;20873;-58
2022/06/20 09:30:20;;;;;;;10.93;5.90;;;33.20;90.90;;;;;;5113931;28;20462;-58
2022/06/20 09:33:11;;;;;;;9.20;6.50;;;33.10;90.10;;;;;;5114077;28;20990;-58
2022/06/20 09:36:00;;;;;;;7.33;6.27;;;33.10;90.40;;;;;;5114447;28;20422;-58
2022/06/20 09:39:02;;;;;;;8.17;6.73;;;33.70;90.50;;;;;;5113905;28;20426;-58
2022/06/20 09:41:37;;;;;;;8.20;6.70;;;33.60;88.20;;;;;;5061418;28;20449;-58
2022/06/20 09:44:20;;;;;;;6.93;6.00;;;33.60;87.00;;;;;;5114268;28;20513;-58
2022/06/20 09:46:59;;;;;;;9.97;7.10;;;33.90;86.20;;;;;;5112373;28;20473;-59
2022/06/20 09:49:36;;;;;;;8.43;5.67;;;33.60;88.00;;;;;;5113843;28;20937;-58
2022/06/20 09:52:11;;;;;;;9.10;6.80;;;34.00;85.00;;;;;;5114822;28;20771;-58
2022/06/20 09:54:50;;;;;;;9.83;6.03;;;33.20;84.50;;;;;;5114007;28;20426;-58
2022/06/20 09:57:30;;;;;;;11.60;6.60;;;31.90;86.90;;;;;;5114116;28;20423;-58
2022/06/20 10:00:07;;;;;;;8.67;6.13;;;31.20;89.00;;;;;;5113937;28;20478;-58
2022/06/20 10:02:48;;;;;;;7.00;5.77;;;30.80;90.30;;;;;;5113662;28;20462;-58
2022/06/20 10:05:27;;;;;;;7.40;6.43;;;30.60;90.10;;;;;;5113989;28;20427;-58
2022/06/20 10:07:59;;;;;;;11.23;6.27;;;31.50;90.00;;;;;;5113612;28;20951;-58
2022/06/20 10:10:34;;;;;;;7.10;6.40;;;31.70;87.70;;;;;;5113784;28;20470;-58
2022/06/20 10:13:16;;;;;;;9.77;5.93;;;31.90;88.10;;;;;;5113483;28;20423;-58
2022/06/20 10:15:50;;;;;;;9.23;7.00;;;32.50;86.70;;;;;;5113592;28;20909;-58
2022/06/20 10:18:33;;;;;;;8.13;6.00;;;32.10;86.70;;;;;;5113539;28;20433;-58
2022/06/20 10:21:07;;;;;;;7.40;5.77;;;31.70;87.60;;;;;;5113457;28;20422;-58
2022/06/20 10:24:00;;;;;;;11.30;6.20;;;31.80;87.10;;;;;;5113449;28;20549;-58
2022/06/20 10:26:57;;;;;;;7.17;6.10;;;32.30;86.00;;;;;;5113493;28;20470;-58
2022/06/20 10:29:28;;;;;;;7.50;6.60;;;32.10;86.40;;;;;;5114186;28;20458;-58
2022/06/20 10:32:06;;;;;;;6.70;6.00;;;32.40;87.70;;;;;;5113643;28;20482;-58
2022/06/20 10:34:42;;;;;;;7.70;5.93;;;32.00;85.10;;;;;;5113530;28;20537;-58
2022/06/20 10:37:24;;;;;;;7.70;5.97;;;31.60;87.50;;;;;;5113168;28;20433;-57
2022/06/20 10:39:58;;;;;;;8.63;6.50;;;30.70;87.10;;;;;;5112914;28;20531;-57
2022/06/20 10:42:32;;;;;;;6.30;5.70;;;30.00;90.60;;;;;;5113460;28;20467;-57
2022/06/20 10:45:25;;;;;;;11.63;6.67;;;29.60;90.90;;;;;;5112934;28;21005;-58
2022/06/20 10:48:16;;;;;;;6.37;5.57;;;29.40;92.00;;;;;;5115055;28;20430;-57
2022/06/20 10:50:49;;;;;;;9.63;6.60;;;29.40;91.20;;;;;;5117443;28;20496;-58
2022/06/20 10:53:24;;;;;;;9.50;5.10;;;29.80;90.50;;;;;;5117230;28;20461;-57
2022/06/20 10:55:59;;;;;;;6.40;5.47;;;30.90;89.50;;;;;;5117354;28;20506;-57
2022/06/20 10:58:42;;;;;;;6.20;5.70;;;31.20;85.30;;;;;;5116805;28;20911;-57
2022/06/20 11:01:18;;;;;;;5.73;5.23;;;30.90;87.10;;;;;;5116763;28;20427;-57
2022/06/20 11:04:15;;;;;;;5.67;4.60;;;30.40;86.20;;;;;;5117024;28;20462;-57
2022/06/20 11:06:55;;;;;;;6.77;5.53;;;31.10;83.80;;;;;;5116799;28;20522;-58
2022/06/20 11:09:32;;;;;;;7.73;5.37;;;31.30;83.50;;;;;;5117535;28;20544;-58
2022/06/20 11:12:06;;;;;;;8.00;5.70;;;31.20;84.20;;;;;;5117156;28;20485;-58
2022/06/20 11:14:41;;;;;;;7.77;5.30;;;31.10;87.90;;;;;;5117734;28;20487;-58
2022/06/20 11:17:17;;;;;;;6.00;5.50;;;30.70;85.20;;;;;;5117138;28;20949;-58
2022/06/20 11:19:56;;;;;;;7.50;5.67;;;30.20;88.20;;;;;;5116641;28;20547;-58
2022/06/20 11:22:37;;;;;;;6.73;6.13;;;29.60;87.50;;;;;;5116616;28;20458;-58
2022/06/20 11:25:19;;;;;;;6.77;5.13;;;29.40;89.40;;;;;;5116410;28;20878;-57
2022/06/20 11:28:06;;;;;;;6.23;5.20;;;29.40;90.20;;;;;;5116211;28;20904;-57
2022/06/20 11:30:42;;;;;;;7.80;6.37;;;29.30;89.80;;;;;;5116823;27;20463;-57
2022/06/20 11:34:00;;;;;;;6.60;5.70;;;29.10;90.30;;;;;;5116522;28;20518;-58
2022/06/20 11:36:16;;;;;;;12.10;7.00;;;29.30;90.30;;;;;;5116186;28;20438;-58
2022/06/20 11:39:00;;;;;;;7.50;6.40;;;29.00;91.20;;;;;;5115953;28;20549;-57
2022/06/20 11:41:35;;;;;;;6.70;5.63;;;29.10;90.70;;;;;;5116574;27;20462;-57
2022/06/20 11:44:44;;;;;;;14.27;6.53;;;28.80;90.60;;;;;;5116298;28;20893;-58
2022/06/20 11:47:28;;;;;;;5.90;5.30;;;28.70;91.30;;;;;;5108482;28;20547;-57
2022/06/20 11:50:20;;;;;;;10.70;6.43;;;29.10;90.90;;;;;;5115877;28;20537;-57
2022/06/20 11:52:57;;;;;;;8.80;6.97;;;29.30;90.60;;;;;;5117148;27;20731;-57
2022/06/20 11:55:33;;;;;;;7.47;6.00;;;29.00;91.30;;;;;;5116862;28;20434;-57
2022/06/20 11:58:10;;;;;;;7.87;7.07;;;28.80;91.80;;;;;;5116215;28;20425;-58
2022/06/20 12:00:42;;;;;;;9.77;6.00;;;28.70;91.30;;;;;;5114541;28;20941;-57
2022/06/20 12:03:20;;;;;;;9.10;6.03;;;28.40;92.20;;;;;;5116066;28;20466;-57
2022/06/20 12:05:58;;;;;;;9.87;6.50;;;28.20;92.10;;;;;;5116105;28;20510;-57
2022/06/20 12:08:35;;;;;;;8.27;6.30;;;28.10;92.80;;;;;;5115956;28;20454;-57
2022/06/20 12:11:09;;;;;;;6.23;5.63;;;28.40;92.40;;;;;;5115871;28;20457;-57
2022/06/20 12:13:46;;;;;;;6.97;5.97;;;28.60;92.40;;;;;;5115767;28;20433;-57
2022/06/20 12:16:40;;;;;;;11.67;5.90;;;28.60;92.00;;;;;;5115507;28;20435;-57
2022/06/20 12:25:31;;;;;;;5.47;3.60;;;27.50;92.20;;;;;;5115389;28;20433;-57
2022/06/20 12:27:58;;;;;;;4.67;4.10;;;27.60;91.70;;;;;;5115494;28;20602;-57
2022/06/20 12:30:25;;;;;;;5.07;4.50;;;27.60;91.20;;;;;;5115611;28;21051;-57
2022/06/20 12:32:56;;;;;;;6.30;4.97;;;28.00;90.50;;;;;;5115377;28;20933;-57
2022/06/20 12:35:30;;;;;;;11.40;6.10;;;28.50;92.00;;;;;;5115450;28;20916;-58
2022/06/20 12:38:02;;;;;;;9.53;6.20;;;29.00;91.70;;;;;;5115495;28;20514;-58
2022/06/20 12:40:36;;;;;;;9.23;5.60;;;29.50;91.90;;;;;;5115455;28;20565;-58
2022/06/20 12:43:11;;;;;;;7.50;5.60;;;29.90;91.50;;;;;;5115406;28;20463;-57
2022/06/20 12:46:10;;;;;;;10.13;5.60;;;29.70;91.80;;;;;;5114926;28;20484;-58
2022/06/20 12:48:52;;;;;;;7.03;5.53;;;29.70;90.70;;;;;;5115001;28;20482;-58
2022/06/20 12:51:34;;;;;;;6.57;5.97;;;29.80;91.20;;;;;;5115029;28;20423;-58
2022/06/20 12:54:20;;;;;;;7.90;5.27;;;30.00;91.10;;;;;;5114884;28;20506;-58
2022/06/20 12:57:05;;;;;;;10.83;5.50;;;30.40;90.40;;;;;;5115339;28;20403;-58
2022/06/20 13:00:04;;;;;;;9.73;5.40;;;29.60;90.80;;;;;;5115146;28;20473;-57
2022/06/20 13:02:53;;;;;;;12.27;5.87;;;29.30;91.00;;;;;;5114997;28;20745;-57
2022/06/20 13:05:39;;;;;;;8.60;6.30;;;29.60;90.70;;;;;;5114673;28;20480;-57
2022/06/20 13:08:30;;;;;;;11.33;6.17;;;29.80;90.10;;;;;;5114616;28;20772;-57
2022/06/20 13:11:11;;;;;;;10.40;6.87;;;29.80;90.20;;;;;;5104019;28;20481;-57
2022/06/20 13:13:59;;;;;;;11.93;7.00;;;29.30;90.70;;;;;;5114715;28;20427;-57
2022/06/20 13:16:32;;;;;;;9.33;6.20;;;28.80;91.10;;;;;;5114889;28;20437;-57
2022/06/20 13:19:12;;;;;;;7.50;6.63;;;28.90;91.80;;;;;;5114720;28;20459;-57
2022/06/20 13:21:44;;;;;;;10.00;5.90;;;28.70;91.70;;;;;;5114552;28;20430;-57
2022/06/20 13:24:42;;;;;;;7.40;5.83;;;28.30;92.40;;;;;;5114471;28;20630;-57
2022/06/20 13:27:21;;;;;;;9.30;5.47;;;27.90;92.90;;;;;;5114704;28;20480;-57
2022/06/20 13:29:56;;;;;;;11.10;5.90;;;27.80;93.00;;;;;;5114730;28;20455;-57
2022/06/20 13:32:31;;;;;;;10.27;6.23;;;27.30;93.80;;;;;;5114081;28;20510;-57
2022/06/20 13:35:06;;;;;;;6.47;5.57;;;27.30;94.10;;;;;;5113667;28;20466;-57
2022/06/20 13:37:45;;;;;;;8.40;5.80;;;27.00;94.10;;;;;;5113797;28;20469;-57